sensor_id;sensor_type;location;lat;lon;timestamp;P1;durP1;ratioP1;P2;durP2;ratioP2
73650;SDS011;61944;52.538;6.108;2023-04-25T00:00:56;7.53;;;3.35;;
73650;SDS011;61944;52.538;6.108;2023-04-25T00:03:21;13.77;;;4.03;;
73650;SDS011;61944;52.538;6.108;2023-04-25T00:05:49;8.63;;;4.07;;
73650;SDS011;61944;52.538;6.108;2023-04-25T00:08:16;12.30;;;3.05;;
73650;SDS011;61944;52.538;6.108;2023-04-25T00:10:42;14.48;;;5.78;;
73650;SDS011;61944;52.538;6.108;2023-04-25T00:13:07;13.82;;;3.72;;
73650;SDS011;61944;52.538;6.108;2023-04-25T00:15:33;13.68;;;3.33;;
73650;SDS011;61944;52.538;6.108;2023-04-25T00:17:58;14.70;;;3.25;;
73650;SDS011;61944;52.538;6.108;2023-04-25T00:20:23;19.95;;;4.13;;
73650;SDS011;61944;52.538;6.108;2023-04-25T00:22:49;15.18;;;4.60;;
73650;SDS011;61944;52.538;6.108;2023-04-25T00:25:15;11.65;;;3.58;;
73650;SDS011;61944;52.538;6.108;2023-04-25T00:27:41;16.33;;;4.03;;
73650;SDS011;61944;52.538;6.108;2023-04-25T00:30:07;13.98;;;4.03;;
73650;SDS011;61944;52.538;6.108;2023-04-25T00:32:32;11.32;;;3.42;;
73650;SDS011;61944;52.538;6.108;2023-04-25T00:34:58;11.82;;;3.42;;
73650;SDS011;61944;52.538;6.108;2023-04-25T00:37:24;13.40;;;3.78;;
73650;SDS011;61944;52.538;6.108;2023-04-25T00:39:52;13.30;;;3.72;;
73650;SDS011;61944;52.538;6.108;2023-04-25T00:42:19;10.57;;;3.65;;
73650;SDS011;61944;52.538;6.108;2023-04-25T00:44:45;14.93;;;4.25;;
73650;SDS011;61944;52.538;6.108;2023-04-25T00:47:11;10.32;;;3.72;;
73650;SDS011;61944;52.538;6.108;2023-04-25T00:49:37;16.92;;;4.18;;
73650;SDS011;61944;52.538;6.108;2023-04-25T00:52:02;7.22;;;3.58;;
73650;SDS011;61944;52.538;6.108;2023-04-25T00:54:28;11.85;;;3.72;;
73650;SDS011;61944;52.538;6.108;2023-04-25T00:56:55;16.85;;;3.55;;
73650;SDS011;61944;52.538;6.108;2023-04-25T00:59:21;15.32;;;3.92;;
73650;SDS011;61944;52.538;6.108;2023-04-25T01:01:47;12.52;;;3.53;;
73650;SDS011;61944;52.538;6.108;2023-04-25T01:04:12;13.73;;;3.38;;
73650;SDS011;61944;52.538;6.108;2023-04-25T01:06:38;9.38;;;2.90;;
73650;SDS011;61944;52.538;6.108;2023-04-25T01:09:04;13.60;;;3.55;;
73650;SDS011;61944;52.538;6.108;2023-04-25T01:11:30;12.68;;;3.45;;
73650;SDS011;61944;52.538;6.108;2023-04-25T01:13:55;9.20;;;2.95;;
73650;SDS011;61944;52.538;6.108;2023-04-25T01:16:21;10.15;;;4.30;;
73650;SDS011;61944;52.538;6.108;2023-04-25T01:18:49;10.63;;;3.08;;
73650;SDS011;61944;52.538;6.108;2023-04-25T01:21:16;13.32;;;3.67;;
73650;SDS011;61944;52.538;6.108;2023-04-25T01:23:41;11.13;;;3.50;;
73650;SDS011;61944;52.538;6.108;2023-04-25T01:26:08;16.90;;;4.97;;
73650;SDS011;61944;52.538;6.108;2023-04-25T01:28:35;16.38;;;4.28;;
73650;SDS011;61944;52.538;6.108;2023-04-25T01:31:02;11.07;;;3.08;;
73650;SDS011;61944;52.538;6.108;2023-04-25T01:33:27;13.57;;;4.13;;
73650;SDS011;61944;52.538;6.108;2023-04-25T01:35:54;9.13;;;3.78;;
73650;SDS011;61944;52.538;6.108;2023-04-25T01:38:19;9.25;;;3.85;;
73650;SDS011;61944;52.538;6.108;2023-04-25T01:40:45;9.15;;;3.45;;
73650;SDS011;61944;52.538;6.108;2023-04-25T01:43:14;13.88;;;3.47;;
73650;SDS011;61944;52.538;6.108;2023-04-25T01:45:40;8.02;;;2.55;;
73650;SDS011;61944;52.538;6.108;2023-04-25T01:48:15;9.32;;;3.13;;
73650;SDS011;61944;52.538;6.108;2023-04-25T01:50:41;10.18;;;3.17;;
73650;SDS011;61944;52.538;6.108;2023-04-25T01:53:07;7.85;;;2.40;;
73650;SDS011;61944;52.538;6.108;2023-04-25T01:55:34;14.35;;;5.22;;
73650;SDS011;61944;52.538;6.108;2023-04-25T01:58:00;9.98;;;3.47;;
73650;SDS011;61944;52.538;6.108;2023-04-25T02:00:28;7.53;;;3.20;;
73650;SDS011;61944;52.538;6.108;2023-04-25T02:02:53;9.60;;;2.42;;
73650;SDS011;61944;52.538;6.108;2023-04-25T02:05:19;5.15;;;2.35;;
73650;SDS011;61944;52.538;6.108;2023-04-25T02:07:45;10.30;;;2.78;;
73650;SDS011;61944;52.538;6.108;2023-04-25T02:10:11;13.85;;;2.97;;
73650;SDS011;61944;52.538;6.108;2023-04-25T02:12:37;6.18;;;3.05;;
73650;SDS011;61944;52.538;6.108;2023-04-25T02:15:02;9.38;;;2.60;;
73650;SDS011;61944;52.538;6.108;2023-04-25T02:17:28;6.22;;;3.00;;
73650;SDS011;61944;52.538;6.108;2023-04-25T02:19:53;6.35;;;2.58;;
73650;SDS011;61944;52.538;6.108;2023-04-25T02:22:19;9.88;;;2.78;;
73650;SDS011;61944;52.538;6.108;2023-04-25T02:24:45;12.77;;;3.15;;
73650;SDS011;61944;52.538;6.108;2023-04-25T02:27:10;9.10;;;3.58;;
73650;SDS011;61944;52.538;6.108;2023-04-25T02:29:36;10.00;;;3.53;;
73650;SDS011;61944;52.538;6.108;2023-04-25T02:32:01;10.95;;;3.03;;
73650;SDS011;61944;52.538;6.108;2023-04-25T02:34:27;8.77;;;3.28;;
73650;SDS011;61944;52.538;6.108;2023-04-25T02:36:52;9.95;;;3.00;;
73650;SDS011;61944;52.538;6.108;2023-04-25T02:39:17;11.93;;;3.72;;
73650;SDS011;61944;52.538;6.108;2023-04-25T02:41:43;11.55;;;2.92;;
73650;SDS011;61944;52.538;6.108;2023-04-25T02:44:09;8.07;;;3.03;;
73650;SDS011;61944;52.538;6.108;2023-04-25T02:46:34;5.72;;;2.75;;
73650;SDS011;61944;52.538;6.108;2023-04-25T02:49:00;10.05;;;2.75;;
73650;SDS011;61944;52.538;6.108;2023-04-25T02:51:25;17.27;;;4.35;;
73650;SDS011;61944;52.538;6.108;2023-04-25T02:53:51;8.13;;;2.33;;
73650;SDS011;61944;52.538;6.108;2023-04-25T02:56:16;14.48;;;3.67;;
73650;SDS011;61944;52.538;6.108;2023-04-25T02:58:42;8.20;;;2.45;;
73650;SDS011;61944;52.538;6.108;2023-04-25T03:01:07;6.05;;;2.70;;
73650;SDS011;61944;52.538;6.108;2023-04-25T03:03:32;6.57;;;2.75;;
73650;SDS011;61944;52.538;6.108;2023-04-25T03:05:58;11.32;;;3.65;;
73650;SDS011;61944;52.538;6.108;2023-04-25T03:08:23;9.13;;;2.92;;
73650;SDS011;61944;52.538;6.108;2023-04-25T03:10:50;11.05;;;3.35;;
73650;SDS011;61944;52.538;6.108;2023-04-25T03:13:17;10.80;;;3.10;;
73650;SDS011;61944;52.538;6.108;2023-04-25T03:15:42;13.40;;;3.75;;
73650;SDS011;61944;52.538;6.108;2023-04-25T03:18:07;13.40;;;2.97;;
73650;SDS011;61944;52.538;6.108;2023-04-25T03:20:33;16.45;;;3.30;;
73650;SDS011;61944;52.538;6.108;2023-04-25T03:22:58;14.77;;;2.92;;
73650;SDS011;61944;52.538;6.108;2023-04-25T03:25:23;14.82;;;3.90;;
73650;SDS011;61944;52.538;6.108;2023-04-25T03:27:49;13.77;;;2.72;;
73650;SDS011;61944;52.538;6.108;2023-04-25T03:30:14;6.85;;;2.47;;
73650;SDS011;61944;52.538;6.108;2023-04-25T03:32:40;9.98;;;3.58;;
73650;SDS011;61944;52.538;6.108;2023-04-25T03:35:05;7.93;;;2.92;;
73650;SDS011;61944;52.538;6.108;2023-04-25T03:37:30;11.07;;;2.88;;
73650;SDS011;61944;52.538;6.108;2023-04-25T03:39:56;10.27;;;3.72;;
73650;SDS011;61944;52.538;6.108;2023-04-25T03:42:21;9.38;;;3.30;;
73650;SDS011;61944;52.538;6.108;2023-04-25T03:44:48;5.13;;;2.95;;
73650;SDS011;61944;52.538;6.108;2023-04-25T03:47:13;10.05;;;2.67;;
73650;SDS011;61944;52.538;6.108;2023-04-25T03:49:39;11.95;;;3.60;;
73650;SDS011;61944;52.538;6.108;2023-04-25T03:52:04;8.25;;;2.08;;
73650;SDS011;61944;52.538;6.108;2023-04-25T03:54:30;6.97;;;2.67;;
73650;SDS011;61944;52.538;6.108;2023-04-25T03:56:56;12.32;;;3.13;;
73650;SDS011;61944;52.538;6.108;2023-04-25T03:59:21;11.43;;;2.58;;
73650;SDS011;61944;52.538;6.108;2023-04-25T04:01:46;11.32;;;2.45;;
73650;SDS011;61944;52.538;6.108;2023-04-25T04:04:12;14.93;;;2.38;;
73650;SDS011;61944;52.538;6.108;2023-04-25T04:06:37;6.65;;;2.92;;
73650;SDS011;61944;52.538;6.108;2023-04-25T04:09:02;5.55;;;1.98;;
73650;SDS011;61944;52.538;6.108;2023-04-25T04:11:28;11.20;;;2.55;;
73650;SDS011;61944;52.538;6.108;2023-04-25T04:13:53;11.30;;;2.75;;
73650;SDS011;61944;52.538;6.108;2023-04-25T04:16:19;6.57;;;2.63;;
73650;SDS011;61944;52.538;6.108;2023-04-25T04:18:45;5.38;;;2.35;;
73650;SDS011;61944;52.538;6.108;2023-04-25T04:21:11;10.80;;;3.40;;
73650;SDS011;61944;52.538;6.108;2023-04-25T04:23:36;12.98;;;2.75;;
73650;SDS011;61944;52.538;6.108;2023-04-25T04:26:02;6.85;;;1.95;;
73650;SDS011;61944;52.538;6.108;2023-04-25T04:28:28;7.00;;;2.10;;
73650;SDS011;61944;52.538;6.108;2023-04-25T04:30:53;10.65;;;2.85;;
73650;SDS011;61944;52.538;6.108;2023-04-25T04:33:18;13.75;;;2.17;;
73650;SDS011;61944;52.538;6.108;2023-04-25T04:35:44;3.38;;;1.70;;
73650;SDS011;61944;52.538;6.108;2023-04-25T04:38:11;10.82;;;2.20;;
73650;SDS011;61944;52.538;6.108;2023-04-25T04:40:37;8.50;;;2.08;;
73650;SDS011;61944;52.538;6.108;2023-04-25T04:43:03;4.85;;;2.05;;
73650;SDS011;61944;52.538;6.108;2023-04-25T04:45:28;6.70;;;2.38;;
73650;SDS011;61944;52.538;6.108;2023-04-25T04:47:54;6.75;;;1.98;;
73650;SDS011;61944;52.538;6.108;2023-04-25T04:50:20;9.05;;;2.42;;
73650;SDS011;61944;52.538;6.108;2023-04-25T04:52:45;10.32;;;2.60;;
73650;SDS011;61944;52.538;6.108;2023-04-25T04:55:11;7.55;;;2.22;;
73650;SDS011;61944;52.538;6.108;2023-04-25T04:57:36;14.98;;;3.05;;
73650;SDS011;61944;52.538;6.108;2023-04-25T05:00:03;6.63;;;2.30;;
73650;SDS011;61944;52.538;6.108;2023-04-25T05:02:30;4.03;;;2.22;;
73650;SDS011;61944;52.538;6.108;2023-04-25T05:04:55;11.43;;;2.22;;
73650;SDS011;61944;52.538;6.108;2023-04-25T05:07:21;7.40;;;2.53;;
73650;SDS011;61944;52.538;6.108;2023-04-25T05:09:46;10.68;;;2.35;;
73650;SDS011;61944;52.538;6.108;2023-04-25T05:12:12;6.80;;;2.25;;
73650;SDS011;61944;52.538;6.108;2023-04-25T05:14:37;7.50;;;1.58;;
73650;SDS011;61944;52.538;6.108;2023-04-25T05:17:03;9.50;;;1.90;;
73650;SDS011;61944;52.538;6.108;2023-04-25T05:19:32;4.35;;;2.47;;
73650;SDS011;61944;52.538;6.108;2023-04-25T05:21:57;6.90;;;2.40;;
73650;SDS011;61944;52.538;6.108;2023-04-25T05:24:23;10.95;;;1.98;;
73650;SDS011;61944;52.538;6.108;2023-04-25T05:26:48;7.00;;;2.08;;
73650;SDS011;61944;52.538;6.108;2023-04-25T05:29:13;16.27;;;3.63;;
73650;SDS011;61944;52.538;6.108;2023-04-25T05:31:39;5.03;;;1.52;;
73650;SDS011;61944;52.538;6.108;2023-04-25T05:34:04;5.75;;;2.28;;
73650;SDS011;61944;52.538;6.108;2023-04-25T05:36:30;4.03;;;1.90;;
73650;SDS011;61944;52.538;6.108;2023-04-25T05:38:57;9.15;;;2.30;;
73650;SDS011;61944;52.538;6.108;2023-04-25T05:41:22;6.72;;;1.77;;
73650;SDS011;61944;52.538;6.108;2023-04-25T05:43:48;9.40;;;1.77;;
73650;SDS011;61944;52.538;6.108;2023-04-25T05:46:14;11.02;;;2.45;;
73650;SDS011;61944;52.538;6.108;2023-04-25T05:48:41;7.53;;;1.85;;
73650;SDS011;61944;52.538;6.108;2023-04-25T05:51:07;5.50;;;1.83;;
73650;SDS011;61944;52.538;6.108;2023-04-25T05:53:32;8.93;;;3.17;;
73650;SDS011;61944;52.538;6.108;2023-04-25T05:55:58;10.68;;;2.33;;
73650;SDS011;61944;52.538;6.108;2023-04-25T05:58:24;3.65;;;2.33;;
73650;SDS011;61944;52.538;6.108;2023-04-25T06:00:50;11.93;;;2.72;;
73650;SDS011;61944;52.538;6.108;2023-04-25T06:03:15;6.82;;;1.90;;
73650;SDS011;61944;52.538;6.108;2023-04-25T06:05:41;4.67;;;2.70;;
73650;SDS011;61944;52.538;6.108;2023-04-25T06:08:07;10.60;;;2.22;;
73650;SDS011;61944;52.538;6.108;2023-04-25T06:10:33;7.13;;;2.03;;
73650;SDS011;61944;52.538;6.108;2023-04-25T06:12:58;9.50;;;2.22;;
73650;SDS011;61944;52.538;6.108;2023-04-25T06:15:24;7.00;;;1.90;;
73650;SDS011;61944;52.538;6.108;2023-04-25T06:17:49;6.85;;;2.08;;
73650;SDS011;61944;52.538;6.108;2023-04-25T06:20:15;4.93;;;1.50;;
73650;SDS011;61944;52.538;6.108;2023-04-25T06:22:40;4.00;;;1.60;;
73650;SDS011;61944;52.538;6.108;2023-04-25T06:25:06;3.50;;;1.70;;
73650;SDS011;61944;52.538;6.108;2023-04-25T06:27:32;7.65;;;1.80;;
73650;SDS011;61944;52.538;6.108;2023-04-25T06:29:58;7.10;;;2.05;;
73650;SDS011;61944;52.538;6.108;2023-04-25T06:32:23;6.80;;;2.30;;
73650;SDS011;61944;52.538;6.108;2023-04-25T06:34:49;9.25;;;1.90;;
73650;SDS011;61944;52.538;6.108;2023-04-25T06:37:14;9.27;;;2.30;;
73650;SDS011;61944;52.538;6.108;2023-04-25T06:39:39;14.27;;;2.10;;
73650;SDS011;61944;52.538;6.108;2023-04-25T06:42:05;5.95;;;1.98;;
73650;SDS011;61944;52.538;6.108;2023-04-25T06:44:30;5.93;;;1.65;;
73650;SDS011;61944;52.538;6.108;2023-04-25T06:46:56;8.35;;;2.05;;
73650;SDS011;61944;52.538;6.108;2023-04-25T06:49:21;3.22;;;1.42;;
73650;SDS011;61944;52.538;6.108;2023-04-25T06:51:47;8.13;;;2.05;;
73650;SDS011;61944;52.538;6.108;2023-04-25T06:54:12;8.65;;;2.20;;
73650;SDS011;61944;52.538;6.108;2023-04-25T06:56:38;7.25;;;1.90;;
73650;SDS011;61944;52.538;6.108;2023-04-25T06:59:03;5.72;;;2.00;;
73650;SDS011;61944;52.538;6.108;2023-04-25T07:01:29;5.60;;;1.55;;
73650;SDS011;61944;52.538;6.108;2023-04-25T07:03:55;7.28;;;1.88;;
73650;SDS011;61944;52.538;6.108;2023-04-25T07:06:20;8.63;;;2.35;;
73650;SDS011;61944;52.538;6.108;2023-04-25T07:08:45;7.63;;;1.63;;
73650;SDS011;61944;52.538;6.108;2023-04-25T07:11:11;9.55;;;1.55;;
73650;SDS011;61944;52.538;6.108;2023-04-25T07:13:37;9.25;;;1.90;;
73650;SDS011;61944;52.538;6.108;2023-04-25T07:16:03;3.80;;;1.85;;
73650;SDS011;61944;52.538;6.108;2023-04-25T07:18:28;2.47;;;1.15;;
73650;SDS011;61944;52.538;6.108;2023-04-25T07:20:55;4.57;;;1.50;;
73650;SDS011;61944;52.538;6.108;2023-04-25T07:23:21;8.80;;;2.63;;
73650;SDS011;61944;52.538;6.108;2023-04-25T07:25:46;7.30;;;1.55;;
73650;SDS011;61944;52.538;6.108;2023-04-25T07:28:17;7.15;;;2.00;;
73650;SDS011;61944;52.538;6.108;2023-04-25T07:30:43;6.03;;;1.40;;
73650;SDS011;61944;52.538;6.108;2023-04-25T07:33:08;7.60;;;1.58;;
73650;SDS011;61944;52.538;6.108;2023-04-25T07:35:34;4.03;;;1.60;;
73650;SDS011;61944;52.538;6.108;2023-04-25T07:37:59;4.75;;;1.55;;
73650;SDS011;61944;52.538;6.108;2023-04-25T07:40:25;2.67;;;1.02;;
73650;SDS011;61944;52.538;6.108;2023-04-25T07:42:50;1.20;;;1.10;;
73650;SDS011;61944;52.538;6.108;2023-04-25T07:45:16;2.10;;;1.20;;
73650;SDS011;61944;52.538;6.108;2023-04-25T07:47:41;3.35;;;1.83;;
73650;SDS011;61944;52.538;6.108;2023-04-25T07:50:08;3.17;;;1.80;;
73650;SDS011;61944;52.538;6.108;2023-04-25T07:52:35;5.22;;;1.58;;
73650;SDS011;61944;52.538;6.108;2023-04-25T07:55:01;4.15;;;1.35;;
73650;SDS011;61944;52.538;6.108;2023-04-25T07:57:26;5.82;;;1.67;;
73650;SDS011;61944;52.538;6.108;2023-04-25T07:59:52;7.20;;;1.45;;
73650;SDS011;61944;52.538;6.108;2023-04-25T08:02:17;6.10;;;1.60;;
73650;SDS011;61944;52.538;6.108;2023-04-25T08:04:42;8.80;;;2.30;;
73650;SDS011;61944;52.538;6.108;2023-04-25T08:07:08;3.67;;;1.88;;
73650;SDS011;61944;52.538;6.108;2023-04-25T08:09:33;9.50;;;2.00;;
73650;SDS011;61944;52.538;6.108;2023-04-25T08:12:00;7.82;;;1.35;;
73650;SDS011;61944;52.538;6.108;2023-04-25T08:14:26;10.10;;;2.50;;
73650;SDS011;61944;52.538;6.108;2023-04-25T08:16:52;6.97;;;1.77;;
73650;SDS011;61944;52.538;6.108;2023-04-25T08:19:17;5.20;;;1.65;;
73650;SDS011;61944;52.538;6.108;2023-04-25T08:21:42;7.35;;;1.75;;
73650;SDS011;61944;52.538;6.108;2023-04-25T08:24:08;7.13;;;1.77;;
73650;SDS011;61944;52.538;6.108;2023-04-25T08:26:33;5.07;;;1.75;;
73650;SDS011;61944;52.538;6.108;2023-04-25T08:28:59;9.50;;;1.70;;
73650;SDS011;61944;52.538;6.108;2023-04-25T08:31:25;7.03;;;2.00;;
73650;SDS011;61944;52.538;6.108;2023-04-25T08:33:50;6.50;;;1.25;;
73650;SDS011;61944;52.538;6.108;2023-04-25T08:36:16;8.32;;;1.83;;
73650;SDS011;61944;52.538;6.108;2023-04-25T08:38:42;5.80;;;1.92;;
73650;SDS011;61944;52.538;6.108;2023-04-25T08:41:07;8.82;;;1.23;;
73650;SDS011;61944;52.538;6.108;2023-04-25T08:43:36;5.35;;;1.17;;
73650;SDS011;61944;52.538;6.108;2023-04-25T08:46:02;6.03;;;1.52;;
73650;SDS011;61944;52.538;6.108;2023-04-25T08:48:28;3.22;;;1.23;;
73650;SDS011;61944;52.538;6.108;2023-04-25T08:50:57;3.13;;;2.17;;
73650;SDS011;61944;52.538;6.108;2023-04-25T08:53:30;7.15;;;1.60;;
73650;SDS011;61944;52.538;6.108;2023-04-25T08:55:58;5.50;;;1.50;;
73650;SDS011;61944;52.538;6.108;2023-04-25T08:58:24;5.32;;;1.45;;
73650;SDS011;61944;52.538;6.108;2023-04-25T09:00:50;9.98;;;2.90;;
73650;SDS011;61944;52.538;6.108;2023-04-25T09:03:17;5.88;;;1.95;;
73650;SDS011;61944;52.538;6.108;2023-04-25T09:05:43;5.60;;;2.25;;
73650;SDS011;61944;52.538;6.108;2023-04-25T09:08:09;7.30;;;2.20;;
73650;SDS011;61944;52.538;6.108;2023-04-25T09:10:34;7.32;;;1.75;;
73650;SDS011;61944;52.538;6.108;2023-04-25T09:13:03;6.85;;;2.00;;
73650;SDS011;61944;52.538;6.108;2023-04-25T09:15:31;4.22;;;1.00;;
73650;SDS011;61944;52.538;6.108;2023-04-25T09:17:57;5.13;;;1.30;;
73650;SDS011;61944;52.538;6.108;2023-04-25T09:20:23;5.90;;;1.20;;
73650;SDS011;61944;52.538;6.108;2023-04-25T09:22:49;7.55;;;1.30;;
73650;SDS011;61944;52.538;6.108;2023-04-25T09:25:26;4.93;;;1.30;;
73650;SDS011;61944;52.538;6.108;2023-04-25T09:27:53;3.45;;;1.00;;
73650;SDS011;61944;52.538;6.108;2023-04-25T09:30:19;7.28;;;1.45;;
73650;SDS011;61944;52.538;6.108;2023-04-25T09:33:08;8.30;;;1.92;;
73650;SDS011;61944;52.538;6.108;2023-04-25T09:35:38;5.10;;;1.75;;
73650;SDS011;61944;52.538;6.108;2023-04-25T09:38:11;5.22;;;1.70;;
73650;SDS011;61944;52.538;6.108;2023-04-25T09:43:18;14.05;;;1.60;;
73650;SDS011;61944;52.538;6.108;2023-04-25T09:45:47;7.68;;;1.83;;
73650;SDS011;61944;52.538;6.108;2023-04-25T09:48:17;3.03;;;1.33;;
73650;SDS011;61944;52.538;6.108;2023-04-25T09:50:44;8.75;;;1.40;;
73650;SDS011;61944;52.538;6.108;2023-04-25T09:53:10;6.32;;;1.52;;
73650;SDS011;61944;52.538;6.108;2023-04-25T09:55:35;8.80;;;1.80;;
73650;SDS011;61944;52.538;6.108;2023-04-25T09:58:03;5.03;;;1.38;;
73650;SDS011;61944;52.538;6.108;2023-04-25T10:00:31;2.72;;;1.23;;
73650;SDS011;61944;52.538;6.108;2023-04-25T10:02:57;5.10;;;1.02;;
73650;SDS011;61944;52.538;6.108;2023-04-25T10:05:28;6.07;;;1.35;;
73650;SDS011;61944;52.538;6.108;2023-04-25T10:07:58;4.97;;;1.20;;
73650;SDS011;61944;52.538;6.108;2023-04-25T10:10:27;4.95;;;1.33;;
73650;SDS011;61944;52.538;6.108;2023-04-25T10:12:55;9.45;;;1.27;;
73650;SDS011;61944;52.538;6.108;2023-04-25T10:15:21;1.95;;;1.13;;
73650;SDS011;61944;52.538;6.108;2023-04-25T10:17:48;2.70;;;1.23;;
73650;SDS011;61944;52.538;6.108;2023-04-25T10:20:15;5.45;;;1.60;;
73650;SDS011;61944;52.538;6.108;2023-04-25T10:22:41;7.57;;;1.67;;
73650;SDS011;61944;52.538;6.108;2023-04-25T10:25:09;5.22;;;2.55;;
73650;SDS011;61944;52.538;6.108;2023-04-25T10:27:36;4.55;;;1.38;;
73650;SDS011;61944;52.538;6.108;2023-04-25T10:30:09;3.40;;;1.33;;
73650;SDS011;61944;52.538;6.108;2023-04-25T10:32:37;3.55;;;1.40;;
73650;SDS011;61944;52.538;6.108;2023-04-25T10:37:37;4.97;;;1.45;;
73650;SDS011;61944;52.538;6.108;2023-04-25T10:40:09;4.38;;;1.48;;
73650;SDS011;61944;52.538;6.108;2023-04-25T10:42:35;8.55;;;1.85;;
73650;SDS011;61944;52.538;6.108;2023-04-25T10:45:04;5.30;;;1.73;;
73650;SDS011;61944;52.538;6.108;2023-04-25T10:47:36;4.07;;;1.30;;
73650;SDS011;61944;52.538;6.108;2023-04-25T10:50:09;8.27;;;1.85;;
73650;SDS011;61944;52.538;6.108;2023-04-25T10:52:35;4.43;;;1.50;;
73650;SDS011;61944;52.538;6.108;2023-04-25T10:55:04;6.47;;;1.48;;
73650;SDS011;61944;52.538;6.108;2023-04-25T11:00:05;7.10;;;1.40;;
73650;SDS011;61944;52.538;6.108;2023-04-25T11:02:41;12.35;;;1.80;;
73650;SDS011;61944;52.538;6.108;2023-04-25T11:05:33;8.63;;;2.15;;
73650;SDS011;61944;52.538;6.108;2023-04-25T11:07:58;3.67;;;1.35;;
73650;SDS011;61944;52.538;6.108;2023-04-25T11:10:28;4.60;;;1.10;;
73650;SDS011;61944;52.538;6.108;2023-04-25T11:12:55;8.68;;;1.50;;
73650;SDS011;61944;52.538;6.108;2023-04-25T11:15:21;7.68;;;1.50;;
73650;SDS011;61944;52.538;6.108;2023-04-25T11:17:47;4.80;;;1.25;;
73650;SDS011;61944;52.538;6.108;2023-04-25T11:20:13;9.02;;;2.25;;
73650;SDS011;61944;52.538;6.108;2023-04-25T11:22:40;1.42;;;1.33;;
73650;SDS011;61944;52.538;6.108;2023-04-25T11:25:07;9.32;;;2.60;;
73650;SDS011;61944;52.538;6.108;2023-04-25T11:27:33;6.65;;;1.95;;
73650;SDS011;61944;52.538;6.108;2023-04-25T11:30:09;6.50;;;1.55;;
73650;SDS011;61944;52.538;6.108;2023-04-25T11:32:39;5.72;;;1.75;;
73650;SDS011;61944;52.538;6.108;2023-04-25T11:35:06;3.78;;;1.15;;
73650;SDS011;61944;52.538;6.108;2023-04-25T11:37:32;3.75;;;1.55;;
73650;SDS011;61944;52.538;6.108;2023-04-25T11:39:59;4.38;;;1.40;;
73650;SDS011;61944;52.538;6.108;2023-04-25T11:42:24;5.28;;;1.42;;
73650;SDS011;61944;52.538;6.108;2023-04-25T11:44:50;4.10;;;1.17;;
73650;SDS011;61944;52.538;6.108;2023-04-25T11:47:16;3.72;;;1.52;;
73650;SDS011;61944;52.538;6.108;2023-04-25T11:49:41;5.28;;;1.85;;
73650;SDS011;61944;52.538;6.108;2023-04-25T11:52:07;3.15;;;1.45;;
73650;SDS011;61944;52.538;6.108;2023-04-25T11:54:34;8.48;;;1.98;;
73650;SDS011;61944;52.538;6.108;2023-04-25T11:57:00;8.75;;;1.95;;
73650;SDS011;61944;52.538;6.108;2023-04-25T11:59:29;5.05;;;1.35;;
73650;SDS011;61944;52.538;6.108;2023-04-25T12:01:55;5.68;;;1.60;;
73650;SDS011;61944;52.538;6.108;2023-04-25T12:04:21;4.75;;;1.38;;
73650;SDS011;61944;52.538;6.108;2023-04-25T12:06:48;5.05;;;1.70;;
73650;SDS011;61944;52.538;6.108;2023-04-25T12:09:19;2.45;;;1.30;;
73650;SDS011;61944;52.538;6.108;2023-04-25T12:12:09;4.82;;;1.27;;
73650;SDS011;61944;52.538;6.108;2023-04-25T12:14:35;6.22;;;1.75;;
73650;SDS011;61944;52.538;6.108;2023-04-25T12:17:02;6.50;;;1.75;;
73650;SDS011;61944;52.538;6.108;2023-04-25T12:19:32;4.75;;;1.40;;
73650;SDS011;61944;52.538;6.108;2023-04-25T12:22:00;7.70;;;1.67;;
73650;SDS011;61944;52.538;6.108;2023-04-25T12:24:28;1.73;;;1.20;;
73650;SDS011;61944;52.538;6.108;2023-04-25T12:26:58;3.67;;;1.77;;
73650;SDS011;61944;52.538;6.108;2023-04-25T12:29:29;5.28;;;1.45;;
73650;SDS011;61944;52.538;6.108;2023-04-25T12:31:56;2.15;;;1.10;;
73650;SDS011;61944;52.538;6.108;2023-04-25T12:34:22;6.72;;;1.77;;
73650;SDS011;61944;52.538;6.108;2023-04-25T12:36:48;5.80;;;1.80;;
73650;SDS011;61944;52.538;6.108;2023-04-25T12:39:15;2.28;;;1.23;;
73650;SDS011;61944;52.538;6.108;2023-04-25T12:41:42;4.30;;;1.88;;
73650;SDS011;61944;52.538;6.108;2023-04-25T12:44:07;3.17;;;1.48;;
73650;SDS011;61944;52.538;6.108;2023-04-25T12:46:32;2.45;;;1.23;;
73650;SDS011;61944;52.538;6.108;2023-04-25T12:48:58;3.90;;;1.20;;
73650;SDS011;61944;52.538;6.108;2023-04-25T12:51:23;2.15;;;1.10;;
73650;SDS011;61944;52.538;6.108;2023-04-25T12:53:50;3.97;;;1.38;;
73650;SDS011;61944;52.538;6.108;2023-04-25T12:56:16;4.32;;;1.23;;
73650;SDS011;61944;52.538;6.108;2023-04-25T12:58:41;4.55;;;1.20;;
73650;SDS011;61944;52.538;6.108;2023-04-25T13:01:09;4.50;;;2.08;;
73650;SDS011;61944;52.538;6.108;2023-04-25T13:03:34;5.53;;;1.38;;
73650;SDS011;61944;52.538;6.108;2023-04-25T13:06:00;2.92;;;1.35;;
73650;SDS011;61944;52.538;6.108;2023-04-25T13:08:25;2.15;;;1.40;;
73650;SDS011;61944;52.538;6.108;2023-04-25T13:10:51;8.07;;;1.88;;
73650;SDS011;61944;52.538;6.108;2023-04-25T13:13:16;4.70;;;1.15;;
73650;SDS011;61944;52.538;6.108;2023-04-25T13:15:42;6.65;;;1.67;;
73650;SDS011;61944;52.538;6.108;2023-04-25T13:18:08;6.05;;;1.63;;
73650;SDS011;61944;52.538;6.108;2023-04-25T13:20:33;3.35;;;2.00;;
73650;SDS011;61944;52.538;6.108;2023-04-25T13:22:59;3.35;;;1.50;;
73650;SDS011;61944;52.538;6.108;2023-04-25T13:25:24;1.73;;;1.23;;
73650;SDS011;61944;52.538;6.108;2023-04-25T13:27:50;8.88;;;1.98;;
73650;SDS011;61944;52.538;6.108;2023-04-25T13:30:15;5.60;;;1.70;;
73650;SDS011;61944;52.538;6.108;2023-04-25T13:32:41;6.57;;;1.58;;
73650;SDS011;61944;52.538;6.108;2023-04-25T13:35:10;5.00;;;1.50;;
73650;SDS011;61944;52.538;6.108;2023-04-25T13:37:38;4.93;;;1.63;;
73650;SDS011;61944;52.538;6.108;2023-04-25T13:40:05;4.88;;;1.60;;
73650;SDS011;61944;52.538;6.108;2023-04-25T13:42:35;5.07;;;1.60;;
73650;SDS011;61944;52.538;6.108;2023-04-25T13:45:01;4.57;;;1.38;;
73650;SDS011;61944;52.538;6.108;2023-04-25T13:47:26;7.35;;;2.08;;
73650;SDS011;61944;52.538;6.108;2023-04-25T13:49:52;3.17;;;1.88;;
73650;SDS011;61944;52.538;6.108;2023-04-25T13:52:18;3.58;;;1.30;;
73650;SDS011;61944;52.538;6.108;2023-04-25T13:54:46;1.85;;;1.20;;
73650;SDS011;61944;52.538;6.108;2023-04-25T13:57:12;7.05;;;1.95;;
73650;SDS011;61944;52.538;6.108;2023-04-25T13:59:38;8.40;;;2.75;;
73650;SDS011;61944;52.538;6.108;2023-04-25T14:02:04;3.42;;;1.38;;
73650;SDS011;61944;52.538;6.108;2023-04-25T14:04:29;7.43;;;2.38;;
73650;SDS011;61944;52.538;6.108;2023-04-25T14:06:55;5.00;;;1.55;;
73650;SDS011;61944;52.538;6.108;2023-04-25T14:09:21;3.38;;;1.38;;
73650;SDS011;61944;52.538;6.108;2023-04-25T14:11:50;4.30;;;2.08;;
73650;SDS011;61944;52.538;6.108;2023-04-25T14:14:17;9.40;;;1.85;;
73650;SDS011;61944;52.538;6.108;2023-04-25T14:16:42;5.03;;;1.40;;
73650;SDS011;61944;52.538;6.108;2023-04-25T14:19:08;5.00;;;1.30;;
73650;SDS011;61944;52.538;6.108;2023-04-25T14:21:33;5.18;;;1.58;;
73650;SDS011;61944;52.538;6.108;2023-04-25T14:23:58;1.95;;;1.10;;
73650;SDS011;61944;52.538;6.108;2023-04-25T14:26:24;4.93;;;1.80;;
73650;SDS011;61944;52.538;6.108;2023-04-25T14:28:51;5.13;;;1.33;;
73650;SDS011;61944;52.538;6.108;2023-04-25T14:31:17;4.88;;;1.55;;
73650;SDS011;61944;52.538;6.108;2023-04-25T14:33:42;6.10;;;1.50;;
73650;SDS011;61944;52.538;6.108;2023-04-25T14:36:08;4.88;;;1.92;;
73650;SDS011;61944;52.538;6.108;2023-04-25T14:38:34;6.68;;;2.28;;
73650;SDS011;61944;52.538;6.108;2023-04-25T14:40:59;9.13;;;1.60;;
73650;SDS011;61944;52.538;6.108;2023-04-25T14:43:25;6.10;;;1.95;;
73650;SDS011;61944;52.538;6.108;2023-04-25T14:45:50;9.05;;;1.50;;
73650;SDS011;61944;52.538;6.108;2023-04-25T14:48:17;3.50;;;1.60;;